sensor_id;sensor_type;location;lat;lon;timestamp;P1;durP1;ratioP1;P2;durP2;ratioP2
43744;SDS011;29359;53.048;8.732;2023-09-07T00:00:59;2.45;;;2.25;;
43744;SDS011;29359;53.048;8.732;2023-09-07T00:03:02;2.45;;;2.03;;
43744;SDS011;29359;53.048;8.732;2023-09-07T00:05:06;2.05;;;1.90;;
43744;SDS011;29359;53.048;8.732;2023-09-07T00:07:09;5.80;;;2.10;;
43744;SDS011;29359;53.048;8.732;2023-09-07T00:09:11;4.53;;;1.65;;
43744;SDS011;29359;53.048;8.732;2023-09-07T00:11:15;3.28;;;1.88;;
43744;SDS011;29359;53.048;8.732;2023-09-07T00:13:17;2.40;;;2.17;;
43744;SDS011;29359;53.048;8.732;2023-09-07T00:15:19;2.75;;;2.00;;
43744;SDS011;29359;53.048;8.732;2023-09-07T00:17:21;2.33;;;2.00;;
43744;SDS011;29359;53.048;8.732;2023-09-07T00:19:23;4.30;;;1.85;;
43744;SDS011;29359;53.048;8.732;2023-09-07T00:21:25;2.20;;;1.90;;
43744;SDS011;29359;53.048;8.732;2023-09-07T00:23:27;2.10;;;1.90;;
43744;SDS011;29359;53.048;8.732;2023-09-07T00:25:28;2.72;;;2.20;;
43744;SDS011;29359;53.048;8.732;2023-09-07T00:27:30;3.42;;;2.33;;
43744;SDS011;29359;53.048;8.732;2023-09-07T00:29:32;1.85;;;1.70;;
43744;SDS011;29359;53.048;8.732;2023-09-07T00:31:34;2.75;;;2.15;;
43744;SDS011;29359;53.048;8.732;2023-09-07T00:33:36;2.33;;;2.13;;
43744;SDS011;29359;53.048;8.732;2023-09-07T00:35:37;1.90;;;1.60;;
43744;SDS011;29359;53.048;8.732;2023-09-07T00:37:39;7.07;;;2.17;;
43744;SDS011;29359;53.048;8.732;2023-09-07T00:39:41;2.00;;;1.90;;
43744;SDS011;29359;53.048;8.732;2023-09-07T00:41:43;2.30;;;2.10;;
43744;SDS011;29359;53.048;8.732;2023-09-07T00:43:45;3.55;;;2.15;;
43744;SDS011;29359;53.048;8.732;2023-09-07T00:45:46;2.47;;;2.20;;
43744;SDS011;29359;53.048;8.732;2023-09-07T00:47:48;3.67;;;2.03;;
43744;SDS011;29359;53.048;8.732;2023-09-07T00:49:50;3.55;;;2.00;;
43744;SDS011;29359;53.048;8.732;2023-09-07T00:51:52;2.10;;;2.00;;
43744;SDS011;29359;53.048;8.732;2023-09-07T00:53:54;2.85;;;2.55;;
43744;SDS011;29359;53.048;8.732;2023-09-07T00:55:56;2.20;;;2.05;;
43744;SDS011;29359;53.048;8.732;2023-09-07T00:57:59;2.10;;;2.00;;
43744;SDS011;29359;53.048;8.732;2023-09-07T01:00:02;2.13;;;1.92;;
43744;SDS011;29359;53.048;8.732;2023-09-07T01:02:05;2.55;;;2.35;;
43744;SDS011;29359;53.048;8.732;2023-09-07T01:04:07;2.78;;;2.50;;
43744;SDS011;29359;53.048;8.732;2023-09-07T01:06:12;4.00;;;2.15;;
43744;SDS011;29359;53.048;8.732;2023-09-07T01:08:19;2.72;;;2.45;;
43744;SDS011;29359;53.048;8.732;2023-09-07T01:10:26;4.35;;;2.10;;
43744;SDS011;29359;53.048;8.732;2023-09-07T01:12:28;3.85;;;2.75;;
43744;SDS011;29359;53.048;8.732;2023-09-07T01:14:30;2.40;;;2.08;;
43744;SDS011;29359;53.048;8.732;2023-09-07T01:16:31;2.67;;;2.42;;
43744;SDS011;29359;53.048;8.732;2023-09-07T01:18:35;3.35;;;2.50;;
43744;SDS011;29359;53.048;8.732;2023-09-07T01:20:40;2.92;;;2.40;;
43744;SDS011;29359;53.048;8.732;2023-09-07T01:22:44;3.25;;;2.10;;
43744;SDS011;29359;53.048;8.732;2023-09-07T01:24:47;2.50;;;2.30;;
43744;SDS011;29359;53.048;8.732;2023-09-07T01:26:49;4.32;;;2.22;;
43744;SDS011;29359;53.048;8.732;2023-09-07T01:28:52;3.35;;;2.40;;
43744;SDS011;29359;53.048;8.732;2023-09-07T01:30:53;4.70;;;2.50;;
43744;SDS011;29359;53.048;8.732;2023-09-07T01:32:55;3.63;;;2.50;;
43744;SDS011;29359;53.048;8.732;2023-09-07T01:34:57;3.25;;;2.53;;
43744;SDS011;29359;53.048;8.732;2023-09-07T01:37:01;3.72;;;2.25;;
43744;SDS011;29359;53.048;8.732;2023-09-07T01:39:03;4.60;;;2.47;;
43744;SDS011;29359;53.048;8.732;2023-09-07T01:41:07;2.80;;;2.40;;
43744;SDS011;29359;53.048;8.732;2023-09-07T01:43:09;2.70;;;2.50;;
43744;SDS011;29359;53.048;8.732;2023-09-07T01:45:10;2.95;;;2.65;;
43744;SDS011;29359;53.048;8.732;2023-09-07T01:47:12;2.22;;;2.10;;
43744;SDS011;29359;53.048;8.732;2023-09-07T01:49:14;3.47;;;2.22;;
43744;SDS011;29359;53.048;8.732;2023-09-07T01:51:16;2.80;;;2.60;;
43744;SDS011;29359;53.048;8.732;2023-09-07T01:53:17;3.25;;;2.95;;
43744;SDS011;29359;53.048;8.732;2023-09-07T01:55:19;4.30;;;2.63;;
43744;SDS011;29359;53.048;8.732;2023-09-07T01:57:21;3.25;;;2.42;;
43744;SDS011;29359;53.048;8.732;2023-09-07T01:59:23;2.83;;;2.58;;
43744;SDS011;29359;53.048;8.732;2023-09-07T02:01:25;2.50;;;2.30;;
43744;SDS011;29359;53.048;8.732;2023-09-07T02:03:32;3.45;;;2.55;;
43744;SDS011;29359;53.048;8.732;2023-09-07T02:05:34;6.25;;;2.70;;
43744;SDS011;29359;53.048;8.732;2023-09-07T02:07:36;4.05;;;2.45;;
43744;SDS011;29359;53.048;8.732;2023-09-07T02:09:38;3.08;;;2.55;;
43744;SDS011;29359;53.048;8.732;2023-09-07T02:11:40;5.13;;;3.05;;
43744;SDS011;29359;53.048;8.732;2023-09-07T02:13:42;3.10;;;2.80;;
43744;SDS011;29359;53.048;8.732;2023-09-07T02:15:44;3.10;;;2.80;;
43744;SDS011;29359;53.048;8.732;2023-09-07T02:17:46;3.38;;;3.08;;
43744;SDS011;29359;53.048;8.732;2023-09-07T02:19:48;6.50;;;2.75;;
43744;SDS011;29359;53.048;8.732;2023-09-07T02:21:50;3.17;;;2.70;;
43744;SDS011;29359;53.048;8.732;2023-09-07T02:23:54;3.25;;;2.90;;
43744;SDS011;29359;53.048;8.732;2023-09-07T02:25:55;3.13;;;2.67;;
43744;SDS011;29359;53.048;8.732;2023-09-07T02:27:58;4.00;;;2.67;;
43744;SDS011;29359;53.048;8.732;2023-09-07T02:30:01;3.15;;;2.95;;
43744;SDS011;29359;53.048;8.732;2023-09-07T02:32:04;4.63;;;2.70;;
43744;SDS011;29359;53.048;8.732;2023-09-07T02:34:06;4.25;;;3.38;;
43744;SDS011;29359;53.048;8.732;2023-09-07T02:36:08;5.85;;;3.00;;
43744;SDS011;29359;53.048;8.732;2023-09-07T02:38:10;8.85;;;3.33;;
43744;SDS011;29359;53.048;8.732;2023-09-07T02:40:12;4.85;;;2.85;;
43744;SDS011;29359;53.048;8.732;2023-09-07T02:42:13;3.40;;;3.10;;
43744;SDS011;29359;53.048;8.732;2023-09-07T02:44:15;3.03;;;2.83;;
43744;SDS011;29359;53.048;8.732;2023-09-07T02:46:17;5.20;;;2.90;;
43744;SDS011;29359;53.048;8.732;2023-09-07T02:48:19;3.33;;;3.03;;
43744;SDS011;29359;53.048;8.732;2023-09-07T02:50:21;2.80;;;2.55;;
43744;SDS011;29359;53.048;8.732;2023-09-07T02:52:23;3.05;;;2.85;;
43744;SDS011;29359;53.048;8.732;2023-09-07T02:54:24;3.45;;;3.15;;
43744;SDS011;29359;53.048;8.732;2023-09-07T02:56:26;4.40;;;3.25;;
43744;SDS011;29359;53.048;8.732;2023-09-07T02:58:28;3.28;;;3.08;;
43744;SDS011;29359;53.048;8.732;2023-09-07T03:00:30;3.47;;;3.00;;
43744;SDS011;29359;53.048;8.732;2023-09-07T03:02:32;2.92;;;2.72;;
43744;SDS011;29359;53.048;8.732;2023-09-07T03:04:34;3.45;;;3.15;;
43744;SDS011;29359;53.048;8.732;2023-09-07T03:06:36;4.97;;;3.00;;
43744;SDS011;29359;53.048;8.732;2023-09-07T03:08:37;2.80;;;2.60;;
43744;SDS011;29359;53.048;8.732;2023-09-07T03:10:40;3.40;;;3.15;;
43744;SDS011;29359;53.048;8.732;2023-09-07T03:12:42;3.22;;;3.03;;
43744;SDS011;29359;53.048;8.732;2023-09-07T03:14:44;3.63;;;3.08;;
43744;SDS011;29359;53.048;8.732;2023-09-07T03:16:46;3.10;;;2.90;;
43744;SDS011;29359;53.048;8.732;2023-09-07T03:18:51;3.95;;;3.13;;
43744;SDS011;29359;53.048;8.732;2023-09-07T03:20:54;6.07;;;3.10;;
43744;SDS011;29359;53.048;8.732;2023-09-07T03:23:00;4.57;;;3.20;;
43744;SDS011;29359;53.048;8.732;2023-09-07T03:25:02;5.43;;;3.30;;
43744;SDS011;29359;53.048;8.732;2023-09-07T03:27:04;3.33;;;3.13;;
43744;SDS011;29359;53.048;8.732;2023-09-07T03:29:07;5.75;;;3.28;;
43744;SDS011;29359;53.048;8.732;2023-09-07T03:31:08;4.10;;;2.95;;
43744;SDS011;29359;53.048;8.732;2023-09-07T03:33:10;3.30;;;3.00;;
43744;SDS011;29359;53.048;8.732;2023-09-07T03:35:12;5.88;;;3.40;;
43744;SDS011;29359;53.048;8.732;2023-09-07T03:37:14;3.67;;;2.70;;
43744;SDS011;29359;53.048;8.732;2023-09-07T03:39:16;3.30;;;3.00;;
43744;SDS011;29359;53.048;8.732;2023-09-07T03:41:20;3.85;;;3.50;;
43744;SDS011;29359;53.048;8.732;2023-09-07T03:43:21;3.70;;;3.40;;
43744;SDS011;29359;53.048;8.732;2023-09-07T03:45:23;5.60;;;3.17;;
43744;SDS011;29359;53.048;8.732;2023-09-07T03:47:25;6.32;;;3.47;;
43744;SDS011;29359;53.048;8.732;2023-09-07T03:49:30;4.63;;;3.25;;
43744;SDS011;29359;53.048;8.732;2023-09-07T03:51:32;4.13;;;3.80;;
43744;SDS011;29359;53.048;8.732;2023-09-07T03:53:34;4.05;;;3.65;;
43744;SDS011;29359;53.048;8.732;2023-09-07T03:55:42;3.85;;;3.47;;
43744;SDS011;29359;53.048;8.732;2023-09-07T03:57:45;4.63;;;4.03;;
43744;SDS011;29359;53.048;8.732;2023-09-07T03:59:47;3.50;;;3.20;;
43744;SDS011;29359;53.048;8.732;2023-09-07T04:01:49;6.60;;;3.53;;
43744;SDS011;29359;53.048;8.732;2023-09-07T04:03:52;8.63;;;3.55;;
43744;SDS011;29359;53.048;8.732;2023-09-07T04:05:54;6.35;;;3.95;;
43744;SDS011;29359;53.048;8.732;2023-09-07T04:07:56;3.97;;;3.67;;
43744;SDS011;29359;53.048;8.732;2023-09-07T04:09:58;5.82;;;3.90;;
43744;SDS011;29359;53.048;8.732;2023-09-07T04:12:00;4.00;;;3.50;;
43744;SDS011;29359;53.048;8.732;2023-09-07T04:14:02;4.80;;;3.92;;
43744;SDS011;29359;53.048;8.732;2023-09-07T04:16:04;4.85;;;3.92;;
43744;SDS011;29359;53.048;8.732;2023-09-07T04:18:06;5.07;;;3.65;;
43744;SDS011;29359;53.048;8.732;2023-09-07T04:20:08;4.30;;;3.42;;
43744;SDS011;29359;53.048;8.732;2023-09-07T04:22:11;3.85;;;3.55;;
43744;SDS011;29359;53.048;8.732;2023-09-07T04:24:12;6.15;;;3.70;;
43744;SDS011;29359;53.048;8.732;2023-09-07T04:26:14;6.13;;;3.70;;
43744;SDS011;29359;53.048;8.732;2023-09-07T04:28:16;5.65;;;4.05;;
43744;SDS011;29359;53.048;8.732;2023-09-07T04:30:18;4.57;;;3.25;;
43744;SDS011;29359;53.048;8.732;2023-09-07T04:32:20;5.13;;;4.25;;
43744;SDS011;29359;53.048;8.732;2023-09-07T04:34:22;8.18;;;4.35;;
43744;SDS011;29359;53.048;8.732;2023-09-07T04:36:24;4.30;;;4.00;;
43744;SDS011;29359;53.048;8.732;2023-09-07T04:38:26;6.75;;;4.10;;
43744;SDS011;29359;53.048;8.732;2023-09-07T04:40:28;4.63;;;3.97;;
43744;SDS011;29359;53.048;8.732;2023-09-07T04:42:30;6.60;;;4.18;;
43744;SDS011;29359;53.048;8.732;2023-09-07T04:44:32;7.78;;;4.07;;
43744;SDS011;29359;53.048;8.732;2023-09-07T04:46:33;9.50;;;3.90;;
43744;SDS011;29359;53.048;8.732;2023-09-07T04:48:35;6.78;;;4.05;;
43744;SDS011;29359;53.048;8.732;2023-09-07T04:50:37;6.63;;;4.30;;
43744;SDS011;29359;53.048;8.732;2023-09-07T04:52:39;6.20;;;4.57;;
43744;SDS011;29359;53.048;8.732;2023-09-07T04:54:41;11.32;;;4.60;;
43744;SDS011;29359;53.048;8.732;2023-09-07T04:56:42;8.15;;;5.13;;
43744;SDS011;29359;53.048;8.732;2023-09-07T04:58:44;7.32;;;4.43;;
43744;SDS011;29359;53.048;8.732;2023-09-07T05:00:46;6.07;;;4.85;;
43744;SDS011;29359;53.048;8.732;2023-09-07T05:02:48;8.70;;;5.03;;
43744;SDS011;29359;53.048;8.732;2023-09-07T05:04:50;5.55;;;4.32;;
43744;SDS011;29359;53.048;8.732;2023-09-07T05:06:52;5.13;;;4.63;;
43744;SDS011;29359;53.048;8.732;2023-09-07T05:08:54;5.45;;;4.68;;
43744;SDS011;29359;53.048;8.732;2023-09-07T05:10:56;7.00;;;5.05;;
43744;SDS011;29359;53.048;8.732;2023-09-07T05:12:59;7.22;;;4.90;;
43744;SDS011;29359;53.048;8.732;2023-09-07T05:15:01;7.68;;;5.07;;
43744;SDS011;29359;53.048;8.732;2023-09-07T05:17:03;14.73;;;5.32;;
43744;SDS011;29359;53.048;8.732;2023-09-07T05:19:04;7.65;;;4.97;;
43744;SDS011;29359;53.048;8.732;2023-09-07T05:21:16;5.90;;;5.30;;
43744;SDS011;29359;53.048;8.732;2023-09-07T05:23:18;7.88;;;5.10;;
43744;SDS011;29359;53.048;8.732;2023-09-07T05:25:20;5.68;;;5.20;;
43744;SDS011;29359;53.048;8.732;2023-09-07T05:27:22;12.07;;;5.22;;
43744;SDS011;29359;53.048;8.732;2023-09-07T05:29:24;5.95;;;5.25;;
43744;SDS011;29359;53.048;8.732;2023-09-07T05:31:26;10.85;;;5.50;;
43744;SDS011;29359;53.048;8.732;2023-09-07T05:33:28;9.77;;;5.53;;
43744;SDS011;29359;53.048;8.732;2023-09-07T05:35:30;6.18;;;5.50;;
43744;SDS011;29359;53.048;8.732;2023-09-07T05:37:33;8.90;;;5.20;;
43744;SDS011;29359;53.048;8.732;2023-09-07T05:39:35;8.63;;;5.50;;
43744;SDS011;29359;53.048;8.732;2023-09-07T05:41:37;10.25;;;5.38;;
43744;SDS011;29359;53.048;8.732;2023-09-07T05:43:38;11.50;;;5.60;;
43744;SDS011;29359;53.048;8.732;2023-09-07T05:45:40;6.70;;;4.70;;
43744;SDS011;29359;53.048;8.732;2023-09-07T05:47:43;7.55;;;5.53;;
43744;SDS011;29359;53.048;8.732;2023-09-07T05:49:44;6.25;;;5.65;;
43744;SDS011;29359;53.048;8.732;2023-09-07T05:51:46;8.90;;;5.53;;
43744;SDS011;29359;53.048;8.732;2023-09-07T05:53:48;7.57;;;5.07;;
43744;SDS011;29359;53.048;8.732;2023-09-07T05:55:50;9.05;;;5.53;;
43744;SDS011;29359;53.048;8.732;2023-09-07T05:57:55;7.38;;;5.43;;
43744;SDS011;29359;53.048;8.732;2023-09-07T05:59:57;8.80;;;5.55;;
43744;SDS011;29359;53.048;8.732;2023-09-07T06:01:59;8.90;;;5.65;;
43744;SDS011;29359;53.048;8.732;2023-09-07T06:04:01;7.18;;;5.32;;
43744;SDS011;29359;53.048;8.732;2023-09-07T06:06:04;5.95;;;5.28;;
43744;SDS011;29359;53.048;8.732;2023-09-07T06:08:06;12.35;;;5.28;;
43744;SDS011;29359;53.048;8.732;2023-09-07T06:10:09;7.50;;;5.07;;
43744;SDS011;29359;53.048;8.732;2023-09-07T06:12:11;8.00;;;5.40;;
43744;SDS011;29359;53.048;8.732;2023-09-07T06:14:12;7.15;;;5.03;;
43744;SDS011;29359;53.048;8.732;2023-09-07T06:16:14;15.27;;;6.05;;
43744;SDS011;29359;53.048;8.732;2023-09-07T06:18:16;8.50;;;5.57;;
43744;SDS011;29359;53.048;8.732;2023-09-07T06:20:18;10.75;;;5.47;;
43744;SDS011;29359;53.048;8.732;2023-09-07T06:22:21;12.30;;;5.88;;
43744;SDS011;29359;53.048;8.732;2023-09-07T06:24:22;6.13;;;5.53;;
43744;SDS011;29359;53.048;8.732;2023-09-07T06:26:24;7.00;;;5.47;;
43744;SDS011;29359;53.048;8.732;2023-09-07T06:28:27;6.22;;;5.53;;
43744;SDS011;29359;53.048;8.732;2023-09-07T06:30:28;8.80;;;5.68;;
43744;SDS011;29359;53.048;8.732;2023-09-07T06:32:30;7.75;;;5.47;;
43744;SDS011;29359;53.048;8.732;2023-09-07T06:34:32;10.52;;;5.90;;
43744;SDS011;29359;53.048;8.732;2023-09-07T06:36:34;9.75;;;6.00;;
43744;SDS011;29359;53.048;8.732;2023-09-07T06:38:48;8.75;;;6.07;;
43744;SDS011;29359;53.048;8.732;2023-09-07T06:40:50;11.82;;;5.40;;
43744;SDS011;29359;53.048;8.732;2023-09-07T06:42:52;8.05;;;5.53;;
43744;SDS011;29359;53.048;8.732;2023-09-07T06:44:54;8.60;;;5.78;;
43744;SDS011;29359;53.048;8.732;2023-09-07T06:46:56;10.30;;;5.60;;
43744;SDS011;29359;53.048;8.732;2023-09-07T06:48:58;8.48;;;5.20;;
43744;SDS011;29359;53.048;8.732;2023-09-07T06:51:05;7.10;;;4.85;;
43744;SDS011;29359;53.048;8.732;2023-09-07T06:53:07;10.43;;;5.25;;
43744;SDS011;29359;53.048;8.732;2023-09-07T06:55:09;5.60;;;5.10;;
43744;SDS011;29359;53.048;8.732;2023-09-07T06:57:11;7.20;;;5.10;;
43744;SDS011;29359;53.048;8.732;2023-09-07T06:59:13;5.30;;;4.70;;
43744;SDS011;29359;53.048;8.732;2023-09-07T07:01:15;5.75;;;4.75;;
43744;SDS011;29359;53.048;8.732;2023-09-07T07:03:18;6.22;;;5.07;;
43744;SDS011;29359;53.048;8.732;2023-09-07T07:05:20;6.43;;;4.78;;
43744;SDS011;29359;53.048;8.732;2023-09-07T07:07:23;9.48;;;4.82;;
43744;SDS011;29359;53.048;8.732;2023-09-07T07:09:25;6.53;;;4.38;;
43744;SDS011;29359;53.048;8.732;2023-09-07T07:11:27;10.40;;;4.20;;
43744;SDS011;29359;53.048;8.732;2023-09-07T07:13:29;9.60;;;4.70;;
43744;SDS011;29359;53.048;8.732;2023-09-07T07:15:31;5.07;;;4.40;;
43744;SDS011;29359;53.048;8.732;2023-09-07T07:17:36;6.13;;;4.32;;
43744;SDS011;29359;53.048;8.732;2023-09-07T07:19:37;6.53;;;3.63;;
43744;SDS011;29359;53.048;8.732;2023-09-07T07:21:39;5.47;;;4.00;;
43744;SDS011;29359;53.048;8.732;2023-09-07T07:23:41;5.43;;;4.10;;
43744;SDS011;29359;53.048;8.732;2023-09-07T07:25:43;4.38;;;3.83;;
43744;SDS011;29359;53.048;8.732;2023-09-07T07:27:46;5.85;;;4.13;;
43744;SDS011;29359;53.048;8.732;2023-09-07T07:29:50;4.90;;;4.10;;
43744;SDS011;29359;53.048;8.732;2023-09-07T07:31:52;10.07;;;4.45;;
43744;SDS011;29359;53.048;8.732;2023-09-07T07:33:54;8.90;;;4.50;;
43744;SDS011;29359;53.048;8.732;2023-09-07T07:35:56;8.00;;;4.60;;
43744;SDS011;29359;53.048;8.732;2023-09-07T07:37:58;8.73;;;4.35;;
43744;SDS011;29359;53.048;8.732;2023-09-07T07:40:00;4.35;;;3.53;;
43744;SDS011;29359;53.048;8.732;2023-09-07T07:42:02;5.60;;;4.45;;
43744;SDS011;29359;53.048;8.732;2023-09-07T07:44:05;9.00;;;4.50;;
43744;SDS011;29359;53.048;8.732;2023-09-07T07:46:07;7.25;;;4.85;;
43744;SDS011;29359;53.048;8.732;2023-09-07T07:48:10;5.38;;;4.18;;
43744;SDS011;29359;53.048;8.732;2023-09-07T07:50:12;7.68;;;4.32;;
43744;SDS011;29359;53.048;8.732;2023-09-07T07:52:14;6.20;;;4.05;;
43744;SDS011;29359;53.048;8.732;2023-09-07T07:54:16;10.55;;;4.25;;
43744;SDS011;29359;53.048;8.732;2023-09-07T07:56:18;3.95;;;3.58;;
43744;SDS011;29359;53.048;8.732;2023-09-07T07:58:20;8.02;;;4.30;;
43744;SDS011;29359;53.048;8.732;2023-09-07T08:00:21;6.40;;;4.45;;
43744;SDS011;29359;53.048;8.732;2023-09-07T08:02:23;6.00;;;3.72;;
43744;SDS011;29359;53.048;8.732;2023-09-07T08:04:25;9.93;;;4.20;;
43744;SDS011;29359;53.048;8.732;2023-09-07T08:06:27;5.03;;;3.70;;
43744;SDS011;29359;53.048;8.732;2023-09-07T08:08:29;6.68;;;4.10;;
43744;SDS011;29359;53.048;8.732;2023-09-07T08:10:34;6.85;;;4.30;;
43744;SDS011;29359;53.048;8.732;2023-09-07T08:12:38;6.18;;;3.90;;
43744;SDS011;29359;53.048;8.732;2023-09-07T08:14:39;5.32;;;4.00;;
43744;SDS011;29359;53.048;8.732;2023-09-07T08:16:41;6.95;;;4.00;;
43744;SDS011;29359;53.048;8.732;2023-09-07T08:18:43;7.05;;;3.70;;
43744;SDS011;29359;53.048;8.732;2023-09-07T08:20:45;7.55;;;3.88;;
43744;SDS011;29359;53.048;8.732;2023-09-07T08:22:47;11.75;;;3.65;;
43744;SDS011;29359;53.048;8.732;2023-09-07T08:24:49;6.57;;;3.58;;
43744;SDS011;29359;53.048;8.732;2023-09-07T08:26:52;10.13;;;3.60;;
43744;SDS011;29359;53.048;8.732;2023-09-07T08:28:56;4.28;;;3.47;;
43744;SDS011;29359;53.048;8.732;2023-09-07T08:30:58;6.28;;;3.55;;
43744;SDS011;29359;53.048;8.732;2023-09-07T08:33:02;11.18;;;3.45;;
43744;SDS011;29359;53.048;8.732;2023-09-07T08:35:08;11.38;;;4.32;;
43744;SDS011;29359;53.048;8.732;2023-09-07T08:37:10;6.65;;;3.90;;
43744;SDS011;29359;53.048;8.732;2023-09-07T08:39:12;3.75;;;3.35;;
43744;SDS011;29359;53.048;8.732;2023-09-07T08:41:14;4.55;;;3.30;;
43744;SDS011;29359;53.048;8.732;2023-09-07T08:43:16;5.82;;;3.28;;
43744;SDS011;29359;53.048;8.732;2023-09-07T08:45:21;4.13;;;3.75;;
43744;SDS011;29359;53.048;8.732;2023-09-07T08:47:27;4.35;;;3.30;;
43744;SDS011;29359;53.048;8.732;2023-09-07T08:49:30;4.28;;;3.50;;
43744;SDS011;29359;53.048;8.732;2023-09-07T08:51:34;3.85;;;3.08;;
43744;SDS011;29359;53.048;8.732;2023-09-07T08:53:39;3.35;;;3.00;;
43744;SDS011;29359;53.048;8.732;2023-09-07T08:55:41;4.22;;;3.28;;
43744;SDS011;29359;53.048;8.732;2023-09-07T08:57:43;6.22;;;3.40;;
43744;SDS011;29359;53.048;8.732;2023-09-07T08:59:45;6.35;;;3.35;;
43744;SDS011;29359;53.048;8.732;2023-09-07T09:01:46;4.53;;;3.50;;
43744;SDS011;29359;53.048;8.732;2023-09-07T09:03:49;6.03;;;3.70;;
43744;SDS011;29359;53.048;8.732;2023-09-07T09:05:51;4.88;;;3.42;;
43744;SDS011;29359;53.048;8.732;2023-09-07T09:08:03;6.00;;;3.67;;
43744;SDS011;29359;53.048;8.732;2023-09-07T09:10:06;5.35;;;3.65;;
43744;SDS011;29359;53.048;8.732;2023-09-07T09:12:09;3.83;;;3.30;;
43744;SDS011;29359;53.048;8.732;2023-09-07T09:14:11;5.40;;;3.42;;
43744;SDS011;29359;53.048;8.732;2023-09-07T09:16:19;6.13;;;3.42;;
43744;SDS011;29359;53.048;8.732;2023-09-07T09:18:22;8.07;;;3.17;;
43744;SDS011;29359;53.048;8.732;2023-09-07T09:20:24;3.60;;;3.30;;
43744;SDS011;29359;53.048;8.732;2023-09-07T09:22:28;3.63;;;3.33;;
43744;SDS011;29359;53.048;8.732;2023-09-07T09:24:33;7.93;;;3.75;;
43744;SDS011;29359;53.048;8.732;2023-09-07T09:26:36;4.20;;;3.65;;
43744;SDS011;29359;53.048;8.732;2023-09-07T09:28:38;4.10;;;3.20;;
43744;SDS011;29359;53.048;8.732;2023-09-07T09:30:41;4.45;;;3.50;;
43744;SDS011;29359;53.048;8.732;2023-09-07T09:32:46;6.00;;;3.53;;
43744;SDS011;29359;53.048;8.732;2023-09-07T09:34:50;6.28;;;3.50;;
43744;SDS011;29359;53.048;8.732;2023-09-07T09:36:51;4.13;;;3.13;;
43744;SDS011;29359;53.048;8.732;2023-09-07T09:38:54;3.75;;;3.45;;
43744;SDS011;29359;53.048;8.732;2023-09-07T09:40:55;3.47;;;3.17;;
43744;SDS011;29359;53.048;8.732;2023-09-07T09:42:57;3.60;;;3.30;;
43744;SDS011;29359;53.048;8.732;2023-09-07T09:45:01;6.85;;;2.95;;
43744;SDS011;29359;53.048;8.732;2023-09-07T09:47:05;5.43;;;3.33;;
43744;SDS011;29359;53.048;8.732;2023-09-07T09:49:09;6.47;;;3.58;;
43744;SDS011;29359;53.048;8.732;2023-09-07T09:51:15;4.45;;;3.10;;
43744;SDS011;29359;53.048;8.732;2023-09-07T09:53:17;4.70;;;3.17;;
43744;SDS011;29359;53.048;8.732;2023-09-07T09:55:22;6.25;;;3.50;;
43744;SDS011;29359;53.048;8.732;2023-09-07T09:57:25;5.97;;;3.60;;
43744;SDS011;29359;53.048;8.732;2023-09-07T09:59:26;6.40;;;3.72;;
43744;SDS011;29359;53.048;8.732;2023-09-07T10:01:28;6.50;;;3.58;;
43744;SDS011;29359;53.048;8.732;2023-09-07T10:03:37;6.97;;;3.47;;
43744;SDS011;29359;53.048;8.732;2023-09-07T10:05:48;3.83;;;3.47;;
43744;SDS011;29359;53.048;8.732;2023-09-07T10:07:50;9.10;;;3.67;;
43744;SDS011;29359;53.048;8.732;2023-09-07T10:09:55;9.82;;;3.20;;
43744;SDS011;29359;53.048;8.732;2023-09-07T10:11:57;5.05;;;3.60;;
43744;SDS011;29359;53.048;8.732;2023-09-07T10:14:02;3.63;;;3.33;;
43744;SDS011;29359;53.048;8.732;2023-09-07T10:16:05;5.07;;;3.40;;
43744;SDS011;29359;53.048;8.732;2023-09-07T10:18:12;6.45;;;2.90;;
43744;SDS011;29359;53.048;8.732;2023-09-07T10:20:16;5.10;;;3.10;;
43744;SDS011;29359;53.048;8.732;2023-09-07T10:22:24;5.78;;;2.90;;
43744;SDS011;29359;53.048;8.732;2023-09-07T10:24:27;5.70;;;3.00;;
43744;SDS011;29359;53.048;8.732;2023-09-07T10:26:31;13.27;;;3.22;;
43744;SDS011;29359;53.048;8.732;2023-09-07T10:28:33;5.57;;;2.45;;
43744;SDS011;29359;53.048;8.732;2023-09-07T10:30:35;5.45;;;3.05;;
43744;SDS011;29359;53.048;8.732;2023-09-07T10:32:40;5.80;;;2.90;;
43744;SDS011;29359;53.048;8.732;2023-09-07T10:34:43;3.65;;;2.92;;
43744;SDS011;29359;53.048;8.732;2023-09-07T10:36:45;6.93;;;3.00;;
43744;SDS011;29359;53.048;8.732;2023-09-07T10:38:47;5.28;;;3.05;;
43744;SDS011;29359;53.048;8.732;2023-09-07T10:40:54;4.38;;;3.00;;
43744;SDS011;29359;53.048;8.732;2023-09-07T10:43:02;3.10;;;2.50;;
43744;SDS011;29359;53.048;8.732;2023-09-07T10:45:12;4.90;;;3.10;;
43744;SDS011;29359;53.048;8.732;2023-09-07T10:47:17;5.60;;;2.92;;
43744;SDS011;29359;53.048;8.732;2023-09-07T10:49:19;5.72;;;2.50;;
43744;SDS011;29359;53.048;8.732;2023-09-07T10:51:21;2.90;;;2.70;;
43744;SDS011;29359;53.048;8.732;2023-09-07T10:53:26;3.70;;;2.58;;
43744;SDS011;29359;53.048;8.732;2023-09-07T10:55:35;3.92;;;2.60;;
43744;SDS011;29359;53.048;8.732;2023-09-07T10:57:46;6.25;;;2.47;;
43744;SDS011;29359;53.048;8.732;2023-09-07T10:59:49;6.22;;;2.92;;
43744;SDS011;29359;53.048;8.732;2023-09-07T11:01:50;6.88;;;2.65;;
43744;SDS011;29359;53.048;8.732;2023-09-07T11:03:53;3.92;;;2.70;;
43744;SDS011;29359;53.048;8.732;2023-09-07T11:05:59;8.60;;;2.97;;
43744;SDS011;29359;53.048;8.732;2023-09-07T11:08:06;7.50;;;2.47;;
43744;SDS011;29359;53.048;8.732;2023-09-07T11:10:09;7.78;;;2.60;;
43744;SDS011;29359;53.048;8.732;2023-09-07T11:12:14;3.00;;;2.70;;
43744;SDS011;29359;53.048;8.732;2023-09-07T11:14:20;4.63;;;2.17;;
43744;SDS011;29359;53.048;8.732;2023-09-07T11:16:24;4.88;;;2.75;;
43744;SDS011;29359;53.048;8.732;2023-09-07T11:18:27;4.72;;;2.58;;
43744;SDS011;29359;53.048;8.732;2023-09-07T11:20:29;3.95;;;2.50;;
43744;SDS011;29359;53.048;8.732;2023-09-07T11:22:31;4.60;;;2.45;;
43744;SDS011;29359;53.048;8.732;2023-09-07T11:24:34;4.53;;;2.47;;
43744;SDS011;29359;53.048;8.732;2023-09-07T11:26:45;3.10;;;2.22;;
43744;SDS011;29359;53.048;8.732;2023-09-07T11:28:48;3.47;;;2.50;;
43744;SDS011;29359;53.048;8.732;2023-09-07T11:30:51;9.30;;;2.58;;
43744;SDS011;29359;53.048;8.732;2023-09-07T11:33:05;3.47;;;2.35;;
43744;SDS011;29359;53.048;8.732;2023-09-07T11:35:09;6.53;;;2.38;;
43744;SDS011;29359;53.048;8.732;2023-09-07T11:37:11;3.80;;;2.28;;
43744;SDS011;29359;53.048;8.732;2023-09-07T11:39:12;3.95;;;2.50;;
43744;SDS011;29359;53.048;8.732;2023-09-07T11:41:15;2.42;;;2.17;;
43744;SDS011;29359;53.048;8.732;2023-09-07T11:43:17;4.03;;;2.40;;
43744;SDS011;29359;53.048;8.732;2023-09-07T11:45:21;4.72;;;2.40;;
43744;SDS011;29359;53.048;8.732;2023-09-07T11:47:23;4.47;;;2.33;;
43744;SDS011;29359;53.048;8.732;2023-09-07T11:49:25;3.63;;;2.22;;
43744;SDS011;29359;53.048;8.732;2023-09-07T11:51:27;5.93;;;2.15;;
43744;SDS011;29359;53.048;8.732;2023-09-07T11:53:29;7.43;;;2.22;;
43744;SDS011;29359;53.048;8.732;2023-09-07T11:55:32;2.40;;;2.20;;
43744;SDS011;29359;53.048;8.732;2023-09-07T11:57:37;6.03;;;2.17;;
43744;SDS011;29359;53.048;8.732;2023-09-07T11:59:39;5.38;;;2.35;;
43744;SDS011;29359;53.048;8.732;2023-09-07T12:01:58;4.18;;;1.90;;
43744;SDS011;29359;53.048;8.732;2023-09-07T12:04:00;4.35;;;1.95;;
43744;SDS011;29359;53.048;8.732;2023-09-07T12:06:02;2.00;;;1.90;;
43744;SDS011;29359;53.048;8.732;2023-09-07T12:08:05;2.05;;;1.90;;
43744;SDS011;29359;53.048;8.732;2023-09-07T12:10:07;2.15;;;1.83;;
43744;SDS011;29359;53.048;8.732;2023-09-07T12:12:12;5.85;;;2.13;;
43744;SDS011;29359;53.048;8.732;2023-09-07T12:14:13;4.22;;;1.90;;
43744;SDS011;29359;53.048;8.732;2023-09-07T12:16:15;5.20;;;1.88;;
43744;SDS011;29359;53.048;8.732;2023-09-07T12:18:17;4.85;;;2.00;;
43744;SDS011;29359;53.048;8.732;2023-09-07T12:20:19;5.97;;;2.03;;